Jago, Mississippi
Current Conditions -  °F | °C
As of 3:54 PM on Thursday 18 Dec 2014 (Local Time) from KMEM Reporting Station
Overcast Overcast  
Wind Chill: 46°   Ceiling: 2100
Heat Index: 46°   Visibility: 10mi
Dew Point: 36°   Wind: 0mph
Humidity: 68%   Direction: NA
Pressure: 30.18"   Gusts: NA
Location:  34.9498°N, 90.0305°W
Report Text: KMEM 182154Z 00000KT 10SM OVC021 08/02 A3018 RMK AO2 SLP221 T00780022 $
Loading
Personal Weather Stations






























Interactive Weather Map New forecast layout! Learn more

10-Day Weather Forecast

Advertisements
Track Severe Weather on mobile